sensor_id;sensor_type;location;lat;lon;timestamp;P1;durP1;ratioP1;P2;durP2;ratioP2
78131;SDS011;67381;47.672;9.380;2023-05-28T00:00:05;7.05;;;3.33;;
78131;SDS011;67381;47.672;9.380;2023-05-28T00:02:34;7.32;;;2.83;;
78131;SDS011;67381;47.672;9.380;2023-05-28T00:05:02;6.63;;;3.72;;
78131;SDS011;67381;47.672;9.380;2023-05-28T00:07:31;10.13;;;3.33;;
78131;SDS011;67381;47.672;9.380;2023-05-28T00:09:58;9.35;;;4.15;;
78131;SDS011;67381;47.672;9.380;2023-05-28T00:12:25;6.68;;;3.55;;
78131;SDS011;67381;47.672;9.380;2023-05-28T00:14:53;9.70;;;3.55;;
78131;SDS011;67381;47.672;9.380;2023-05-28T00:17:20;9.38;;;3.53;;
78131;SDS011;67381;47.672;9.380;2023-05-28T00:19:48;9.45;;;3.03;;
78131;SDS011;67381;47.672;9.380;2023-05-28T00:22:15;7.70;;;3.60;;
78131;SDS011;67381;47.672;9.380;2023-05-28T00:24:42;9.50;;;3.53;;
78131;SDS011;67381;47.672;9.380;2023-05-28T00:27:10;7.45;;;3.25;;
78131;SDS011;67381;47.672;9.380;2023-05-28T00:29:37;9.00;;;3.55;;
78131;SDS011;67381;47.672;9.380;2023-05-28T00:32:04;13.18;;;3.15;;
78131;SDS011;67381;47.672;9.380;2023-05-28T00:34:32;11.50;;;2.83;;
78131;SDS011;67381;47.672;9.380;2023-05-28T00:36:59;6.32;;;2.97;;
78131;SDS011;67381;47.672;9.380;2023-05-28T00:39:26;6.80;;;3.05;;
78131;SDS011;67381;47.672;9.380;2023-05-28T00:42:03;4.90;;;2.83;;
78131;SDS011;67381;47.672;9.380;2023-05-28T00:44:31;9.95;;;3.00;;
78131;SDS011;67381;47.672;9.380;2023-05-28T00:46:59;8.48;;;3.30;;
78131;SDS011;67381;47.672;9.380;2023-05-28T00:49:27;8.73;;;3.47;;
78131;SDS011;67381;47.672;9.380;2023-05-28T00:51:54;8.75;;;2.90;;
78131;SDS011;67381;47.672;9.380;2023-05-28T00:54:25;7.97;;;2.97;;
78131;SDS011;67381;47.672;9.380;2023-05-28T00:56:53;7.25;;;3.33;;
78131;SDS011;67381;47.672;9.380;2023-05-28T00:59:21;8.05;;;3.00;;
78131;SDS011;67381;47.672;9.380;2023-05-28T01:01:48;7.65;;;3.45;;
78131;SDS011;67381;47.672;9.380;2023-05-28T01:04:16;9.57;;;3.47;;
78131;SDS011;67381;47.672;9.380;2023-05-28T01:06:43;6.97;;;3.20;;
78131;SDS011;67381;47.672;9.380;2023-05-28T01:09:11;8.00;;;3.55;;
78131;SDS011;67381;47.672;9.380;2023-05-28T01:11:39;11.38;;;3.60;;
78131;SDS011;67381;47.672;9.380;2023-05-28T01:14:08;7.75;;;3.22;;
78131;SDS011;67381;47.672;9.380;2023-05-28T01:16:36;9.13;;;3.05;;
78131;SDS011;67381;47.672;9.380;2023-05-28T01:19:03;9.05;;;3.97;;
78131;SDS011;67381;47.672;9.380;2023-05-28T01:21:37;10.07;;;3.42;;
78131;SDS011;67381;47.672;9.380;2023-05-28T01:24:08;9.82;;;4.05;;
78131;SDS011;67381;47.672;9.380;2023-05-28T01:26:36;10.77;;;3.70;;
78131;SDS011;67381;47.672;9.380;2023-05-28T01:29:13;7.10;;;3.50;;
78131;SDS011;67381;47.672;9.380;2023-05-28T01:31:42;9.07;;;3.30;;
78131;SDS011;67381;47.672;9.380;2023-05-28T01:34:09;8.18;;;3.60;;
78131;SDS011;67381;47.672;9.380;2023-05-28T01:36:48;14.80;;;3.38;;
78131;SDS011;67381;47.672;9.380;2023-05-28T01:39:19;9.48;;;3.97;;
78131;SDS011;67381;47.672;9.380;2023-05-28T01:41:47;8.32;;;3.55;;
78131;SDS011;67381;47.672;9.380;2023-05-28T01:44:15;7.90;;;3.80;;
78131;SDS011;67381;47.672;9.380;2023-05-28T01:46:46;7.93;;;3.03;;
78131;SDS011;67381;47.672;9.380;2023-05-28T01:49:13;6.97;;;3.10;;
78131;SDS011;67381;47.672;9.380;2023-05-28T01:51:41;7.05;;;3.97;;
78131;SDS011;67381;47.672;9.380;2023-05-28T01:54:08;6.03;;;3.22;;
78131;SDS011;67381;47.672;9.380;2023-05-28T01:56:35;7.95;;;3.85;;
78131;SDS011;67381;47.672;9.380;2023-05-28T01:59:03;9.07;;;3.55;;
78131;SDS011;67381;47.672;9.380;2023-05-28T02:01:30;11.82;;;3.22;;
78131;SDS011;67381;47.672;9.380;2023-05-28T02:04:00;7.90;;;3.50;;
78131;SDS011;67381;47.672;9.380;2023-05-28T02:06:29;6.03;;;3.38;;
78131;SDS011;67381;47.672;9.380;2023-05-28T02:08:58;11.48;;;3.35;;
78131;SDS011;67381;47.672;9.380;2023-05-28T02:11:25;8.60;;;3.53;;
78131;SDS011;67381;47.672;9.380;2023-05-28T02:13:53;6.90;;;4.43;;
78131;SDS011;67381;47.672;9.380;2023-05-28T02:16:21;5.55;;;3.05;;
78131;SDS011;67381;47.672;9.380;2023-05-28T02:18:52;9.00;;;3.92;;
78131;SDS011;67381;47.672;9.380;2023-05-28T02:21:19;8.63;;;3.35;;
78131;SDS011;67381;47.672;9.380;2023-05-28T02:23:47;4.97;;;3.20;;
78131;SDS011;67381;47.672;9.380;2023-05-28T02:26:15;6.35;;;3.17;;
78131;SDS011;67381;47.672;9.380;2023-05-28T02:28:44;8.55;;;3.50;;
78131;SDS011;67381;47.672;9.380;2023-05-28T02:31:12;8.85;;;3.50;;
78131;SDS011;67381;47.672;9.380;2023-05-28T02:33:40;10.40;;;3.95;;
78131;SDS011;67381;47.672;9.380;2023-05-28T02:36:10;6.65;;;3.33;;
78131;SDS011;67381;47.672;9.380;2023-05-28T02:38:39;8.60;;;3.72;;
78131;SDS011;67381;47.672;9.380;2023-05-28T02:41:07;8.50;;;3.33;;
78131;SDS011;67381;47.672;9.380;2023-05-28T02:43:35;10.85;;;3.83;;
78131;SDS011;67381;47.672;9.380;2023-05-28T02:46:03;5.70;;;3.28;;
78131;SDS011;67381;47.672;9.380;2023-05-28T02:48:30;9.48;;;3.63;;
78131;SDS011;67381;47.672;9.380;2023-05-28T02:50:57;7.93;;;3.67;;
78131;SDS011;67381;47.672;9.380;2023-05-28T02:53:28;9.55;;;3.05;;
78131;SDS011;67381;47.672;9.380;2023-05-28T02:55:56;9.63;;;3.97;;
78131;SDS011;67381;47.672;9.380;2023-05-28T02:58:23;10.40;;;3.75;;
78131;SDS011;67381;47.672;9.380;2023-05-28T03:00:53;8.13;;;4.10;;
78131;SDS011;67381;47.672;9.380;2023-05-28T03:03:20;6.72;;;3.30;;
78131;SDS011;67381;47.672;9.380;2023-05-28T03:05:48;6.82;;;3.38;;
78131;SDS011;67381;47.672;9.380;2023-05-28T03:08:15;7.63;;;3.58;;
78131;SDS011;67381;47.672;9.380;2023-05-28T03:10:43;8.40;;;3.97;;
78131;SDS011;67381;47.672;9.380;2023-05-28T03:13:10;14.32;;;4.13;;
78131;SDS011;67381;47.672;9.380;2023-05-28T03:15:37;11.85;;;4.10;;
78131;SDS011;67381;47.672;9.380;2023-05-28T03:18:05;8.55;;;4.25;;
78131;SDS011;67381;47.672;9.380;2023-05-28T03:20:32;7.10;;;3.65;;
78131;SDS011;67381;47.672;9.380;2023-05-28T03:23:00;8.85;;;3.67;;
78131;SDS011;67381;47.672;9.380;2023-05-28T03:25:27;7.50;;;3.03;;
78131;SDS011;67381;47.672;9.380;2023-05-28T03:27:54;7.90;;;3.17;;
78131;SDS011;67381;47.672;9.380;2023-05-28T03:30:22;6.85;;;3.38;;
78131;SDS011;67381;47.672;9.380;2023-05-28T03:32:49;7.43;;;3.13;;
78131;SDS011;67381;47.672;9.380;2023-05-28T03:35:19;7.75;;;3.08;;
78131;SDS011;67381;47.672;9.380;2023-05-28T03:37:46;8.98;;;3.25;;
78131;SDS011;67381;47.672;9.380;2023-05-28T03:40:13;9.20;;;3.35;;
78131;SDS011;67381;47.672;9.380;2023-05-28T03:42:41;11.68;;;4.10;;
78131;SDS011;67381;47.672;9.380;2023-05-28T03:45:08;6.57;;;3.97;;
78131;SDS011;67381;47.672;9.380;2023-05-28T03:47:36;9.35;;;3.42;;
78131;SDS011;67381;47.672;9.380;2023-05-28T03:50:03;8.38;;;3.83;;
78131;SDS011;67381;47.672;9.380;2023-05-28T03:52:31;9.23;;;3.80;;
78131;SDS011;67381;47.672;9.380;2023-05-28T03:54:59;8.32;;;3.78;;
78131;SDS011;67381;47.672;9.380;2023-05-28T03:57:26;7.90;;;3.90;;
78131;SDS011;67381;47.672;9.380;2023-05-28T03:59:53;7.47;;;3.30;;
78131;SDS011;67381;47.672;9.380;2023-05-28T04:02:23;9.57;;;4.82;;
78131;SDS011;67381;47.672;9.380;2023-05-28T04:04:50;10.48;;;3.45;;
78131;SDS011;67381;47.672;9.380;2023-05-28T04:07:18;8.85;;;3.22;;
78131;SDS011;67381;47.672;9.380;2023-05-28T04:09:45;9.73;;;3.33;;
78131;SDS011;67381;47.672;9.380;2023-05-28T04:12:12;7.68;;;3.92;;
78131;SDS011;67381;47.672;9.380;2023-05-28T04:14:40;10.02;;;3.58;;
78131;SDS011;67381;47.672;9.380;2023-05-28T04:17:08;12.00;;;3.60;;
78131;SDS011;67381;47.672;9.380;2023-05-28T04:19:39;6.53;;;3.42;;
78131;SDS011;67381;47.672;9.380;2023-05-28T04:22:06;11.10;;;4.40;;
78131;SDS011;67381;47.672;9.380;2023-05-28T04:24:34;9.40;;;4.50;;
78131;SDS011;67381;47.672;9.380;2023-05-28T04:27:02;7.32;;;3.60;;
78131;SDS011;67381;47.672;9.380;2023-05-28T04:29:30;8.73;;;3.67;;
78131;SDS011;67381;47.672;9.380;2023-05-28T04:31:58;12.75;;;4.47;;
78131;SDS011;67381;47.672;9.380;2023-05-28T04:34:25;8.18;;;3.30;;
78131;SDS011;67381;47.672;9.380;2023-05-28T04:36:52;11.25;;;3.90;;
78131;SDS011;67381;47.672;9.380;2023-05-28T04:39:20;8.15;;;3.22;;
78131;SDS011;67381;47.672;9.380;2023-05-28T04:41:50;7.97;;;3.35;;
78131;SDS011;67381;47.672;9.380;2023-05-28T04:44:18;8.60;;;3.47;;
78131;SDS011;67381;47.672;9.380;2023-05-28T04:46:45;8.85;;;3.50;;
78131;SDS011;67381;47.672;9.380;2023-05-28T04:49:13;13.60;;;4.57;;
78131;SDS011;67381;47.672;9.380;2023-05-28T04:51:40;7.20;;;3.78;;
78131;SDS011;67381;47.672;9.380;2023-05-28T04:54:08;8.52;;;4.05;;
78131;SDS011;67381;47.672;9.380;2023-05-28T04:56:35;7.82;;;4.07;;
78131;SDS011;67381;47.672;9.380;2023-05-28T04:59:03;8.05;;;3.70;;
78131;SDS011;67381;47.672;9.380;2023-05-28T05:01:32;8.98;;;4.28;;
78131;SDS011;67381;47.672;9.380;2023-05-28T05:04:03;11.15;;;4.22;;
78131;SDS011;67381;47.672;9.380;2023-05-28T05:06:30;10.85;;;3.88;;
78131;SDS011;67381;47.672;9.380;2023-05-28T05:08:58;6.75;;;3.92;;
78131;SDS011;67381;47.672;9.380;2023-05-28T05:11:26;9.32;;;4.25;;
78131;SDS011;67381;47.672;9.380;2023-05-28T05:13:53;10.88;;;4.45;;
78131;SDS011;67381;47.672;9.380;2023-05-28T05:16:20;9.13;;;4.25;;
78131;SDS011;67381;47.672;9.380;2023-05-28T05:18:47;7.70;;;4.15;;
78131;SDS011;67381;47.672;9.380;2023-05-28T05:21:15;9.15;;;4.18;;
78131;SDS011;67381;47.672;9.380;2023-05-28T05:23:42;8.75;;;4.30;;
78131;SDS011;67381;47.672;9.380;2023-05-28T05:26:09;9.25;;;4.10;;
78131;SDS011;67381;47.672;9.380;2023-05-28T05:28:39;11.23;;;4.10;;
78131;SDS011;67381;47.672;9.380;2023-05-28T05:31:08;8.40;;;4.00;;
78131;SDS011;67381;47.672;9.380;2023-05-28T05:33:39;10.68;;;4.07;;
78131;SDS011;67381;47.672;9.380;2023-05-28T05:36:09;10.13;;;4.47;;
78131;SDS011;67381;47.672;9.380;2023-05-28T05:38:37;11.57;;;4.25;;
78131;SDS011;67381;47.672;9.380;2023-05-28T05:41:05;10.75;;;4.20;;
78131;SDS011;67381;47.672;9.380;2023-05-28T05:43:32;7.93;;;4.05;;
78131;SDS011;67381;47.672;9.380;2023-05-28T05:45:59;10.63;;;3.92;;
78131;SDS011;67381;47.672;9.380;2023-05-28T05:48:27;12.68;;;4.93;;
78131;SDS011;67381;47.672;9.380;2023-05-28T05:50:54;10.48;;;4.32;;
78131;SDS011;67381;47.672;9.380;2023-05-28T05:53:22;16.83;;;7.68;;
78131;SDS011;67381;47.672;9.380;2023-05-28T05:55:49;11.30;;;5.10;;
78131;SDS011;67381;47.672;9.380;2023-05-28T05:58:17;10.18;;;4.47;;
78131;SDS011;67381;47.672;9.380;2023-05-28T06:00:45;10.98;;;4.28;;
78131;SDS011;67381;47.672;9.380;2023-05-28T06:03:14;9.20;;;5.47;;
78131;SDS011;67381;47.672;9.380;2023-05-28T06:05:41;10.75;;;4.38;;
78131;SDS011;67381;47.672;9.380;2023-05-28T06:08:09;7.57;;;4.35;;
78131;SDS011;67381;47.672;9.380;2023-05-28T06:10:36;10.07;;;4.63;;
78131;SDS011;67381;47.672;9.380;2023-05-28T06:13:04;8.57;;;3.95;;
78131;SDS011;67381;47.672;9.380;2023-05-28T06:15:31;10.43;;;4.20;;
78131;SDS011;67381;47.672;9.380;2023-05-28T06:17:58;6.82;;;3.70;;
78131;SDS011;67381;47.672;9.380;2023-05-28T06:20:27;8.35;;;4.35;;
78131;SDS011;67381;47.672;9.380;2023-05-28T06:22:54;9.77;;;3.92;;
78131;SDS011;67381;47.672;9.380;2023-05-28T06:25:21;9.63;;;4.15;;
78131;SDS011;67381;47.672;9.380;2023-05-28T06:27:49;7.45;;;3.42;;
78131;SDS011;67381;47.672;9.380;2023-05-28T06:30:16;10.18;;;4.45;;
78131;SDS011;67381;47.672;9.380;2023-05-28T06:32:44;8.15;;;3.83;;
78131;SDS011;67381;47.672;9.380;2023-05-28T06:35:12;11.77;;;4.47;;
78131;SDS011;67381;47.672;9.380;2023-05-28T06:37:40;8.93;;;4.30;;
78131;SDS011;67381;47.672;9.380;2023-05-28T06:40:07;8.93;;;4.10;;
78131;SDS011;67381;47.672;9.380;2023-05-28T06:42:37;12.30;;;4.65;;
78131;SDS011;67381;47.672;9.380;2023-05-28T06:45:05;10.20;;;4.47;;
78131;SDS011;67381;47.672;9.380;2023-05-28T06:47:33;11.85;;;4.45;;
78131;SDS011;67381;47.672;9.380;2023-05-28T06:50:01;8.68;;;4.03;;
78131;SDS011;67381;47.672;9.380;2023-05-28T06:52:28;10.35;;;4.55;;
78131;SDS011;67381;47.672;9.380;2023-05-28T06:54:55;10.32;;;3.63;;
78131;SDS011;67381;47.672;9.380;2023-05-28T06:57:22;7.90;;;4.15;;
78131;SDS011;67381;47.672;9.380;2023-05-28T06:59:50;10.80;;;4.78;;
78131;SDS011;67381;47.672;9.380;2023-05-28T07:02:17;10.55;;;4.72;;
78131;SDS011;67381;47.672;9.380;2023-05-28T07:04:45;8.35;;;3.65;;
78131;SDS011;67381;47.672;9.380;2023-05-28T07:07:12;10.07;;;4.03;;
78131;SDS011;67381;47.672;9.380;2023-05-28T07:09:39;9.77;;;4.15;;
78131;SDS011;67381;47.672;9.380;2023-05-28T07:12:08;8.73;;;4.10;;
78131;SDS011;67381;47.672;9.380;2023-05-28T07:14:35;14.45;;;4.55;;
78131;SDS011;67381;47.672;9.380;2023-05-28T07:17:03;10.57;;;3.90;;
78131;SDS011;67381;47.672;9.380;2023-05-28T07:19:31;10.57;;;4.07;;
78131;SDS011;67381;47.672;9.380;2023-05-28T07:21:58;10.85;;;4.10;;
78131;SDS011;67381;47.672;9.380;2023-05-28T07:24:26;10.68;;;4.03;;
78131;SDS011;67381;47.672;9.380;2023-05-28T07:26:53;10.38;;;4.68;;
78131;SDS011;67381;47.672;9.380;2023-05-28T07:29:20;11.07;;;4.60;;
78131;SDS011;67381;47.672;9.380;2023-05-28T07:31:47;6.85;;;3.90;;
78131;SDS011;67381;47.672;9.380;2023-05-28T07:34:15;13.32;;;4.40;;
78131;SDS011;67381;47.672;9.380;2023-05-28T07:36:42;13.95;;;3.83;;
78131;SDS011;67381;47.672;9.380;2023-05-28T07:39:09;12.57;;;3.95;;
78131;SDS011;67381;47.672;9.380;2023-05-28T07:41:40;9.05;;;3.72;;
78131;SDS011;67381;47.672;9.380;2023-05-28T07:44:07;9.00;;;4.22;;
78131;SDS011;67381;47.672;9.380;2023-05-28T07:46:34;9.85;;;4.32;;
78131;SDS011;67381;47.672;9.380;2023-05-28T07:49:03;11.07;;;4.60;;
78131;SDS011;67381;47.672;9.380;2023-05-28T07:51:30;11.30;;;4.70;;
78131;SDS011;67381;47.672;9.380;2023-05-28T07:53:58;8.70;;;4.25;;
78131;SDS011;67381;47.672;9.380;2023-05-28T07:56:25;11.35;;;4.63;;
78131;SDS011;67381;47.672;9.380;2023-05-28T07:58:54;9.00;;;4.95;;
78131;SDS011;67381;47.672;9.380;2023-05-28T08:01:22;12.68;;;4.72;;
78131;SDS011;67381;47.672;9.380;2023-05-28T08:03:50;9.15;;;4.55;;
78131;SDS011;67381;47.672;9.380;2023-05-28T08:06:21;9.80;;;4.65;;
78131;SDS011;67381;47.672;9.380;2023-05-28T08:08:48;10.38;;;4.63;;
78131;SDS011;67381;47.672;9.380;2023-05-28T08:11:15;8.75;;;5.22;;
78131;SDS011;67381;47.672;9.380;2023-05-28T08:13:43;17.48;;;6.40;;
78131;SDS011;67381;47.672;9.380;2023-05-28T08:16:10;13.07;;;5.78;;
78131;SDS011;67381;47.672;9.380;2023-05-28T08:18:38;13.05;;;6.00;;
78131;SDS011;67381;47.672;9.380;2023-05-28T08:21:06;13.10;;;4.60;;
78131;SDS011;67381;47.672;9.380;2023-05-28T08:23:36;9.30;;;5.22;;
78131;SDS011;67381;47.672;9.380;2023-05-28T08:26:03;12.40;;;5.15;;
78131;SDS011;67381;47.672;9.380;2023-05-28T08:28:31;12.40;;;4.57;;
78131;SDS011;67381;47.672;9.380;2023-05-28T08:30:58;14.18;;;6.30;;
78131;SDS011;67381;47.672;9.380;2023-05-28T08:33:26;12.93;;;5.80;;
78131;SDS011;67381;47.672;9.380;2023-05-28T08:35:53;11.85;;;5.47;;
78131;SDS011;67381;47.672;9.380;2023-05-28T08:38:21;11.60;;;5.43;;
78131;SDS011;67381;47.672;9.380;2023-05-28T08:40:49;13.63;;;5.70;;
78131;SDS011;67381;47.672;9.380;2023-05-28T08:43:18;15.30;;;5.93;;
78131;SDS011;67381;47.672;9.380;2023-05-28T08:45:46;15.68;;;5.97;;
78131;SDS011;67381;47.672;9.380;2023-05-28T08:48:14;13.88;;;6.13;;
78131;SDS011;67381;47.672;9.380;2023-05-28T08:50:44;14.98;;;5.75;;
78131;SDS011;67381;47.672;9.380;2023-05-28T08:53:19;10.23;;;4.82;;
78131;SDS011;67381;47.672;9.380;2023-05-28T08:55:47;13.45;;;5.72;;
78131;SDS011;67381;47.672;9.380;2023-05-28T08:58:16;12.10;;;5.57;;
78131;SDS011;67381;47.672;9.380;2023-05-28T09:00:44;12.23;;;5.30;;
78131;SDS011;67381;47.672;9.380;2023-05-28T09:03:12;14.50;;;5.70;;
78131;SDS011;67381;47.672;9.380;2023-05-28T09:05:39;11.65;;;5.70;;
78131;SDS011;67381;47.672;9.380;2023-05-28T09:08:07;12.50;;;6.25;;
78131;SDS011;67381;47.672;9.380;2023-05-28T09:10:37;11.23;;;5.80;;
78131;SDS011;67381;47.672;9.380;2023-05-28T09:13:04;11.07;;;5.70;;
78131;SDS011;67381;47.672;9.380;2023-05-28T09:15:33;14.15;;;5.60;;
78131;SDS011;67381;47.672;9.380;2023-05-28T09:18:04;13.80;;;6.10;;
78131;SDS011;67381;47.672;9.380;2023-05-28T09:20:32;12.73;;;6.13;;
78131;SDS011;67381;47.672;9.380;2023-05-28T09:23:03;12.52;;;5.93;;
78131;SDS011;67381;47.672;9.380;2023-05-28T09:25:34;14.82;;;6.13;;
78131;SDS011;67381;47.672;9.380;2023-05-28T09:28:03;13.35;;;5.85;;
78131;SDS011;67381;47.672;9.380;2023-05-28T09:30:34;9.43;;;5.80;;
78131;SDS011;67381;47.672;9.380;2023-05-28T09:33:02;14.02;;;5.90;;
78131;SDS011;67381;47.672;9.380;2023-05-28T09:35:30;12.27;;;6.57;;
78131;SDS011;67381;47.672;9.380;2023-05-28T09:38:04;12.75;;;6.10;;
78131;SDS011;67381;47.672;9.380;2023-05-28T09:40:38;13.05;;;5.75;;
78131;SDS011;67381;47.672;9.380;2023-05-28T09:43:09;13.90;;;5.68;;
78131;SDS011;67381;47.672;9.380;2023-05-28T09:45:37;10.65;;;6.18;;
78131;SDS011;67381;47.672;9.380;2023-05-28T09:48:04;10.30;;;5.97;;
78131;SDS011;67381;47.672;9.380;2023-05-28T09:50:32;11.60;;;5.93;;
78131;SDS011;67381;47.672;9.380;2023-05-28T09:52:59;12.13;;;4.93;;
78131;SDS011;67381;47.672;9.380;2023-05-28T09:55:27;11.93;;;6.18;;
78131;SDS011;67381;47.672;9.380;2023-05-28T10:00:33;17.23;;;6.05;;
78131;SDS011;67381;47.672;9.380;2023-05-28T10:03:13;12.82;;;5.32;;
78131;SDS011;67381;47.672;9.380;2023-05-28T10:05:48;11.32;;;5.68;;
78131;SDS011;67381;47.672;9.380;2023-05-28T10:08:18;15.63;;;6.05;;
78131;SDS011;67381;47.672;9.380;2023-05-28T10:10:49;11.10;;;6.35;;
78131;SDS011;67381;47.672;9.380;2023-05-28T10:13:19;10.48;;;4.97;;
78131;SDS011;67381;47.672;9.380;2023-05-28T10:15:47;17.27;;;6.15;;
78131;SDS011;67381;47.672;9.380;2023-05-28T10:18:15;14.98;;;5.68;;
78131;SDS011;67381;47.672;9.380;2023-05-28T10:20:43;14.90;;;6.22;;
78131;SDS011;67381;47.672;9.380;2023-05-28T10:23:11;11.25;;;5.38;;
78131;SDS011;67381;47.672;9.380;2023-05-28T10:25:39;16.52;;;5.88;;
78131;SDS011;67381;47.672;9.380;2023-05-28T10:28:06;14.65;;;7.18;;
78131;SDS011;67381;47.672;9.380;2023-05-28T10:30:37;11.10;;;5.68;;
78131;SDS011;67381;47.672;9.380;2023-05-28T10:33:05;10.68;;;6.38;;
78131;SDS011;67381;47.672;9.380;2023-05-28T10:35:37;15.00;;;5.75;;
78131;SDS011;67381;47.672;9.380;2023-05-28T10:38:17;14.75;;;5.88;;
78131;SDS011;67381;47.672;9.380;2023-05-28T10:40:44;10.32;;;5.68;;
78131;SDS011;67381;47.672;9.380;2023-05-28T10:57:18;13.35;;;5.53;;
78131;SDS011;67381;47.672;9.380;2023-05-28T10:59:49;10.95;;;6.22;;
78131;SDS011;67381;47.672;9.380;2023-05-28T11:04:56;12.05;;;5.70;;
78131;SDS011;67381;47.672;9.380;2023-05-28T11:07:30;10.80;;;5.13;;
78131;SDS011;67381;47.672;9.380;2023-05-28T11:10:03;11.85;;;5.60;;
78131;SDS011;67381;47.672;9.380;2023-05-28T11:12:32;11.68;;;5.38;;
78131;SDS011;67381;47.672;9.380;2023-05-28T11:15:03;13.48;;;5.18;;
78131;SDS011;67381;47.672;9.380;2023-05-28T11:17:40;9.65;;;5.55;;
78131;SDS011;67381;47.672;9.380;2023-05-28T11:20:18;11.38;;;5.22;;
78131;SDS011;67381;47.672;9.380;2023-05-28T11:22:47;17.42;;;4.88;;
78131;SDS011;67381;47.672;9.380;2023-05-28T11:25:15;9.52;;;5.22;;
78131;SDS011;67381;47.672;9.380;2023-05-28T11:27:42;11.95;;;5.32;;
78131;SDS011;67381;47.672;9.380;2023-05-28T11:30:14;9.98;;;5.22;;
78131;SDS011;67381;47.672;9.380;2023-05-28T11:32:43;14.68;;;5.63;;
78131;SDS011;67381;47.672;9.380;2023-05-28T11:35:12;13.05;;;5.45;;
78131;SDS011;67381;47.672;9.380;2023-05-28T11:37:41;11.73;;;4.80;;
78131;SDS011;67381;47.672;9.380;2023-05-28T11:40:10;11.80;;;4.70;;
78131;SDS011;67381;47.672;9.380;2023-05-28T11:42:38;10.20;;;4.47;;
78131;SDS011;67381;47.672;9.380;2023-05-28T11:45:07;10.60;;;4.60;;
78131;SDS011;67381;47.672;9.380;2023-05-28T11:47:36;7.47;;;4.38;;
78131;SDS011;67381;47.672;9.380;2023-05-28T11:50:15;17.45;;;4.63;;
78131;SDS011;67381;47.672;9.380;2023-05-28T11:52:43;8.85;;;4.57;;
78131;SDS011;67381;47.672;9.380;2023-05-28T11:55:11;7.78;;;4.72;;
78131;SDS011;67381;47.672;9.380;2023-05-28T11:57:39;12.07;;;4.45;;
78131;SDS011;67381;47.672;9.380;2023-05-28T12:00:17;8.80;;;4.15;;
78131;SDS011;67381;47.672;9.380;2023-05-28T12:05:15;13.00;;;5.75;;
78131;SDS011;67381;47.672;9.380;2023-05-28T12:07:50;7.00;;;3.90;;
78131;SDS011;67381;47.672;9.380;2023-05-28T12:10:20;8.35;;;4.35;;
78131;SDS011;67381;47.672;9.380;2023-05-28T12:12:49;12.48;;;4.43;;
78131;SDS011;67381;47.672;9.380;2023-05-28T12:15:21;8.00;;;4.35;;
78131;SDS011;67381;47.672;9.380;2023-05-28T12:17:56;10.38;;;3.92;;
78131;SDS011;67381;47.672;9.380;2023-05-28T12:20:29;10.05;;;4.78;;
78131;SDS011;67381;47.672;9.380;2023-05-28T12:25:27;7.20;;;3.63;;
78131;SDS011;67381;47.672;9.380;2023-05-28T12:27:54;15.80;;;6.82;;
78131;SDS011;67381;47.672;9.380;2023-05-28T12:30:23;8.32;;;4.78;;
78131;SDS011;67381;47.672;9.380;2023-05-28T12:32:50;14.75;;;6.57;;
78131;SDS011;67381;47.672;9.380;2023-05-28T12:35:17;10.20;;;4.70;;
78131;SDS011;67381;47.672;9.380;2023-05-28T12:37:45;9.18;;;4.63;;
78131;SDS011;67381;47.672;9.380;2023-05-28T12:40:12;9.30;;;4.70;;
78131;SDS011;67381;47.672;9.380;2023-05-28T12:42:40;7.13;;;3.95;;
78131;SDS011;67381;47.672;9.380;2023-05-28T12:45:07;9.43;;;4.38;;
78131;SDS011;67381;47.672;9.380;2023-05-28T12:47:35;11.95;;;4.65;;
78131;SDS011;67381;47.672;9.380;2023-05-28T12:50:02;11.10;;;3.70;;
78131;SDS011;67381;47.672;9.380;2023-05-28T12:52:30;7.93;;;4.20;;
78131;SDS011;67381;47.672;9.380;2023-05-28T12:55:00;7.45;;;3.97;;
78131;SDS011;67381;47.672;9.380;2023-05-28T12:57:36;7.80;;;3.90;;
78131;SDS011;67381;47.672;9.380;2023-05-28T13:00:04;8.77;;;4.30;;
78131;SDS011;67381;47.672;9.380;2023-05-28T13:02:33;7.53;;;4.00;;
78131;SDS011;67381;47.672;9.380;2023-05-28T13:05:01;11.95;;;4.35;;
78131;SDS011;67381;47.672;9.380;2023-05-28T13:07:28;8.00;;;4.50;;
78131;SDS011;67381;47.672;9.380;2023-05-28T13:09:55;8.63;;;4.25;;
78131;SDS011;67381;47.672;9.380;2023-05-28T13:12:22;12.32;;;5.07;;
78131;SDS011;67381;47.672;9.380;2023-05-28T13:14:50;6.38;;;3.67;;
78131;SDS011;67381;47.672;9.380;2023-05-28T13:17:17;10.95;;;3.85;;
78131;SDS011;67381;47.672;9.380;2023-05-28T13:19:47;10.30;;;3.95;;
78131;SDS011;67381;47.672;9.380;2023-05-28T13:22:14;8.25;;;4.22;;
78131;SDS011;67381;47.672;9.380;2023-05-28T13:24:42;11.07;;;3.72;;
78131;SDS011;67381;47.672;9.380;2023-05-28T13:27:12;6.03;;;3.70;;
78131;SDS011;67381;47.672;9.380;2023-05-28T13:29:39;5.72;;;3.42;;
78131;SDS011;67381;47.672;9.380;2023-05-28T13:32:07;7.75;;;3.50;;
78131;SDS011;67381;47.672;9.380;2023-05-28T13:34:35;7.82;;;3.58;;
78131;SDS011;67381;47.672;9.380;2023-05-28T13:37:02;7.28;;;3.40;;
78131;SDS011;67381;47.672;9.380;2023-05-28T13:39:29;8.27;;;4.00;;
78131;SDS011;67381;47.672;9.380;2023-05-28T13:41:57;9.57;;;4.05;;
78131;SDS011;67381;47.672;9.380;2023-05-28T13:44:25;7.22;;;3.83;;
78131;SDS011;67381;47.672;9.380;2023-05-28T13:46:52;7.90;;;4.00;;
78131;SDS011;67381;47.672;9.380;2023-05-28T13:49:20;9.07;;;3.80;;
78131;SDS011;67381;47.672;9.380;2023-05-28T13:51:47;7.00;;;3.78;;
78131;SDS011;67381;47.672;9.380;2023-05-28T13:54:14;6.65;;;3.13;;
78131;SDS011;67381;47.672;9.380;2023-05-28T13:56:42;10.10;;;3.60;;
78131;SDS011;67381;47.672;9.380;2023-05-28T13:59:09;7.43;;;3.40;;
78131;SDS011;67381;47.672;9.380;2023-05-28T14:01:37;9.18;;;3.67;;
78131;SDS011;67381;47.672;9.380;2023-05-28T14:04:04;7.38;;;3.05;;
78131;SDS011;67381;47.672;9.380;2023-05-28T14:06:31;7.35;;;3.63;;
78131;SDS011;67381;47.672;9.380;2023-05-28T14:08:59;6.93;;;3.42;;
78131;SDS011;67381;47.672;9.380;2023-05-28T14:11:26;7.25;;;3.65;;
78131;SDS011;67381;47.672;9.380;2023-05-28T14:13:59;7.68;;;3.45;;
78131;SDS011;67381;47.672;9.380;2023-05-28T14:16:26;7.50;;;3.83;;
78131;SDS011;67381;47.672;9.380;2023-05-28T14:18:54;6.90;;;3.47;;
78131;SDS011;67381;47.672;9.380;2023-05-28T14:21:21;6.15;;;2.85;;
78131;SDS011;67381;47.672;9.380;2023-05-28T14:23:48;6.72;;;3.22;;
78131;SDS011;67381;47.672;9.380;2023-05-28T14:26:15;5.90;;;3.35;;
78131;SDS011;67381;47.672;9.380;2023-05-28T14:28:43;7.70;;;3.40;;
78131;SDS011;67381;47.672;9.380;2023-05-28T14:31:10;9.82;;;3.65;;
78131;SDS011;67381;47.672;9.380;2023-05-28T14:33:37;7.65;;;3.80;;
78131;SDS011;67381;47.672;9.380;2023-05-28T14:36:05;8.18;;;3.33;;
78131;SDS011;67381;47.672;9.380;2023-05-28T14:38:40;7.60;;;3.40;;
78131;SDS011;67381;47.672;9.380;2023-05-28T14:41:07;6.05;;;3.40;;
78131;SDS011;67381;47.672;9.380;2023-05-28T14:43:34;6.15;;;3.55;;
78131;SDS011;67381;47.672;9.380;2023-05-28T14:46:02;7.25;;;4.00;;
78131;SDS011;67381;47.672;9.380;2023-05-28T14:48:29;5.25;;;3.05;;
78131;SDS011;67381;47.672;9.380;2023-05-28T14:50:57;6.78;;;3.28;;
78131;SDS011;67381;47.672;9.380;2023-05-28T14:53:24;6.45;;;3.55;;
78131;SDS011;67381;47.672;9.380;2023-05-28T14:55:51;6.78;;;3.50;;
78131;SDS011;67381;47.672;9.380;2023-05-28T14:58:19;8.75;;;3.67;;
78131;SDS011;67381;47.672;9.380;2023-05-28T15:00:46;7.88;;;3.50;;
78131;SDS011;67381;47.672;9.380;2023-05-28T15:03:14;7.30;;;3.08;;
78131;SDS011;67381;47.672;9.380;2023-05-28T15:05:42;5.78;;;3.38;;
78131;SDS011;67381;47.672;9.380;2023-05-28T15:08:09;5.85;;;3.38;;
78131;SDS011;67381;47.672;9.380;2023-05-28T15:10:37;4.80;;;2.95;;
78131;SDS011;67381;47.672;9.380;2023-05-28T15:13:04;5.65;;;3.40;;